sensor_id;sensor_type;location;lat;lon;timestamp;pressure;altitude;pressure_sealevel;temperature;humidity
76808;BME280;65758;45.458;11.062;2023-02-04T00:00:18;101367.80;;;4.37;69.11
76808;BME280;65758;45.458;11.062;2023-02-04T00:02:46;101374.41;;;4.36;69.43
76808;BME280;65758;45.458;11.062;2023-02-04T00:05:13;101378.66;;;4.32;69.58
76808;BME280;65758;45.458;11.062;2023-02-04T00:07:41;101372.66;;;4.32;69.26
76808;BME280;65758;45.458;11.062;2023-02-04T00:14:21;101364.64;;;4.25;68.97
76808;BME280;65758;45.458;11.062;2023-02-04T00:16:48;101373.17;;;4.23;69.79
76808;BME280;65758;45.458;11.062;2023-02-04T00:19:15;101374.63;;;4.20;69.40
76808;BME280;65758;45.458;11.062;2023-02-04T00:21:42;101376.56;;;4.20;69.50
76808;BME280;65758;45.458;11.062;2023-02-04T00:24:09;101388.23;;;4.24;70.37
76808;BME280;65758;45.458;11.062;2023-02-04T00:26:36;101379.90;;;4.27;69.90
76808;BME280;65758;45.458;11.062;2023-02-04T00:29:02;101397.00;;;4.30;69.91
76808;BME280;65758;45.458;11.062;2023-02-04T00:31:30;101390.88;;;4.31;69.72
76808;BME280;65758;45.458;11.062;2023-02-04T00:33:57;101399.23;;;4.30;69.67
76808;BME280;65758;45.458;11.062;2023-02-04T00:36:25;101381.26;;;4.30;69.49
76808;BME280;65758;45.458;11.062;2023-02-04T00:38:51;101404.73;;;4.28;69.52
76808;BME280;65758;45.458;11.062;2023-02-04T00:41:18;101399.52;;;4.28;69.51
76808;BME280;65758;45.458;11.062;2023-02-04T00:43:45;101383.42;;;4.27;69.14
76808;BME280;65758;45.458;11.062;2023-02-04T00:46:11;101392.34;;;4.25;69.57
76808;BME280;65758;45.458;11.062;2023-02-04T00:48:38;101389.65;;;4.23;69.64
76808;BME280;65758;45.458;11.062;2023-02-04T00:51:05;101382.34;;;4.17;69.40
76808;BME280;65758;45.458;11.062;2023-02-04T00:53:31;101372.66;;;4.11;69.09
76808;BME280;65758;45.458;11.062;2023-02-04T00:55:58;101376.80;;;4.04;68.92
76808;BME280;65758;45.458;11.062;2023-02-04T00:58:25;101372.94;;;3.96;69.26
76808;BME280;65758;45.458;11.062;2023-02-04T01:00:51;101381.65;;;3.93;69.81
76808;BME280;65758;45.458;11.062;2023-02-04T01:03:19;101394.20;;;3.92;70.05
76808;BME280;65758;45.458;11.062;2023-02-04T01:05:45;101376.41;;;3.89;69.42
76808;BME280;65758;45.458;11.062;2023-02-04T01:08:12;101377.98;;;3.84;69.49
76808;BME280;65758;45.458;11.062;2023-02-04T01:10:39;101374.00;;;3.81;69.53
76808;BME280;65758;45.458;11.062;2023-02-04T01:13:06;101383.14;;;3.80;69.80
76808;BME280;65758;45.458;11.062;2023-02-04T01:15:34;101372.72;;;3.78;69.54
76808;BME280;65758;45.458;11.062;2023-02-04T01:18:01;101375.66;;;3.78;69.65
76808;BME280;65758;45.458;11.062;2023-02-04T01:20:28;101368.25;;;3.78;69.93
76808;BME280;65758;45.458;11.062;2023-02-04T01:22:55;101362.14;;;3.78;69.68
76808;BME280;65758;45.458;11.062;2023-02-04T01:25:22;101356.58;;;3.74;69.63
76808;BME280;65758;45.458;11.062;2023-02-04T01:27:49;101353.77;;;3.73;69.61
76808;BME280;65758;45.458;11.062;2023-02-04T01:30:16;101353.14;;;3.72;69.81
76808;BME280;65758;45.458;11.062;2023-02-04T01:32:42;101355.21;;;3.75;69.69
76808;BME280;65758;45.458;11.062;2023-02-04T01:35:09;101362.96;;;3.77;69.62
76808;BME280;65758;45.458;11.062;2023-02-04T01:37:37;101378.67;;;3.77;70.42
76808;BME280;65758;45.458;11.062;2023-02-04T01:40:04;101370.31;;;3.79;69.91
76808;BME280;65758;45.458;11.062;2023-02-04T01:42:33;101383.52;;;3.79;69.66
76808;BME280;65758;45.458;11.062;2023-02-04T01:45:00;101376.91;;;3.78;69.76
76808;BME280;65758;45.458;11.062;2023-02-04T01:47:26;101383.91;;;3.76;69.70
76808;BME280;65758;45.458;11.062;2023-02-04T01:53:42;101376.25;;;3.66;69.66
76808;BME280;65758;45.458;11.062;2023-02-04T01:56:18;101377.10;;;3.63;69.80
76808;BME280;65758;45.458;11.062;2023-02-04T01:58:46;101352.05;;;3.64;69.64
76808;BME280;65758;45.458;11.062;2023-02-04T02:04:00;101350.10;;;3.66;69.96
76808;BME280;65758;45.458;11.062;2023-02-04T02:06:27;101360.48;;;3.68;69.84
76808;BME280;65758;45.458;11.062;2023-02-04T02:08:54;101351.06;;;3.74;70.05
76808;BME280;65758;45.458;11.062;2023-02-04T02:11:20;101349.61;;;3.77;70.00
76808;BME280;65758;45.458;11.062;2023-02-04T02:13:47;101358.34;;;3.76;69.77
76808;BME280;65758;45.458;11.062;2023-02-04T02:16:14;101352.52;;;3.75;69.69
76808;BME280;65758;45.458;11.062;2023-02-04T02:18:40;101374.13;;;3.72;69.70
76808;BME280;65758;45.458;11.062;2023-02-04T02:21:08;101347.60;;;3.72;69.77
76808;BME280;65758;45.458;11.062;2023-02-04T02:23:49;101355.35;;;3.71;69.93
76808;BME280;65758;45.458;11.062;2023-02-04T02:26:18;101348.55;;;3.68;69.87
76808;BME280;65758;45.458;11.062;2023-02-04T02:28:46;101330.61;;;3.64;69.65
76808;BME280;65758;45.458;11.062;2023-02-04T02:31:15;101334.96;;;3.61;70.12
76808;BME280;65758;45.458;11.062;2023-02-04T02:33:45;101322.94;;;3.60;69.81
76808;BME280;65758;45.458;11.062;2023-02-04T02:36:15;101316.58;;;3.59;70.07
76808;BME280;65758;45.458;11.062;2023-02-04T02:38:42;101303.00;;;3.58;69.94
76808;BME280;65758;45.458;11.062;2023-02-04T02:41:09;101315.06;;;3.60;69.91
76808;BME280;65758;45.458;11.062;2023-02-04T02:43:36;101315.79;;;3.61;69.81
76808;BME280;65758;45.458;11.062;2023-02-04T02:46:04;101314.82;;;3.60;69.86
76808;BME280;65758;45.458;11.062;2023-02-04T02:48:31;101317.05;;;3.58;70.22
76808;BME280;65758;45.458;11.062;2023-02-04T02:50:59;101309.86;;;3.58;69.87
76808;BME280;65758;45.458;11.062;2023-02-04T02:53:26;101319.52;;;3.56;69.89
76808;BME280;65758;45.458;11.062;2023-02-04T02:55:53;101301.48;;;3.52;69.71
76808;BME280;65758;45.458;11.062;2023-02-04T02:58:32;101295.15;;;3.49;69.72
76808;BME280;65758;45.458;11.062;2023-02-04T03:01:05;101301.89;;;3.35;69.98
76808;BME280;65758;45.458;11.062;2023-02-04T03:03:39;101289.27;;;3.29;70.47
76808;BME280;65758;45.458;11.062;2023-02-04T03:06:15;101284.79;;;3.29;70.58
76808;BME280;65758;45.458;11.062;2023-02-04T03:08:42;101283.77;;;3.33;70.62
76808;BME280;65758;45.458;11.062;2023-02-04T03:11:10;101290.61;;;3.40;70.48
76808;BME280;65758;45.458;11.062;2023-02-04T03:13:37;101297.29;;;3.46;70.40
76808;BME280;65758;45.458;11.062;2023-02-04T03:16:06;101298.98;;;3.50;70.28
76808;BME280;65758;45.458;11.062;2023-02-04T03:18:35;101306.10;;;3.55;70.47
76808;BME280;65758;45.458;11.062;2023-02-04T03:21:03;101298.41;;;3.59;70.33
76808;BME280;65758;45.458;11.062;2023-02-04T03:23:33;101298.98;;;3.62;70.13
76808;BME280;65758;45.458;11.062;2023-02-04T03:26:03;101305.04;;;3.58;70.03
76808;BME280;65758;45.458;11.062;2023-02-04T03:28:31;101290.86;;;3.44;69.75
76808;BME280;65758;45.458;11.062;2023-02-04T03:30:58;101292.47;;;3.37;69.65
76808;BME280;65758;45.458;11.062;2023-02-04T03:33:27;101298.54;;;3.34;70.26
76808;BME280;65758;45.458;11.062;2023-02-04T03:35:57;101284.75;;;3.32;70.51
76808;BME280;65758;45.458;11.062;2023-02-04T03:38:24;101280.53;;;3.33;70.61
76808;BME280;65758;45.458;11.062;2023-02-04T03:40:51;101298.34;;;3.35;70.65
76808;BME280;65758;45.458;11.062;2023-02-04T03:43:17;101286.38;;;3.38;70.30
76808;BME280;65758;45.458;11.062;2023-02-04T03:45:44;101279.70;;;3.42;70.39
76808;BME280;65758;45.458;11.062;2023-02-04T03:48:11;101283.79;;;3.41;70.91
76808;BME280;65758;45.458;11.062;2023-02-04T03:50:38;101276.00;;;3.38;70.56
76808;BME280;65758;45.458;11.062;2023-02-04T03:53:05;101272.69;;;3.35;70.32
76808;BME280;65758;45.458;11.062;2023-02-04T03:55:32;101280.52;;;3.33;70.47
76808;BME280;65758;45.458;11.062;2023-02-04T03:57:58;101292.83;;;3.27;70.54
76808;BME280;65758;45.458;11.062;2023-02-04T04:00:25;101293.61;;;3.20;70.73
76808;BME280;65758;45.458;11.062;2023-02-04T04:02:52;101286.37;;;3.19;70.75
76808;BME280;65758;45.458;11.062;2023-02-04T04:05:18;101300.11;;;3.20;70.78
76808;BME280;65758;45.458;11.062;2023-02-04T04:07:45;101295.51;;;3.19;70.82
76808;BME280;65758;45.458;11.062;2023-02-04T04:10:11;101302.11;;;3.13;70.70
76808;BME280;65758;45.458;11.062;2023-02-04T04:12:38;101303.48;;;3.07;70.73
76808;BME280;65758;45.458;11.062;2023-02-04T04:15:05;101297.63;;;3.07;70.77
76808;BME280;65758;45.458;11.062;2023-02-04T04:17:32;101301.91;;;3.12;71.84
76808;BME280;65758;45.458;11.062;2023-02-04T04:19:59;101299.36;;;3.22;71.86
76808;BME280;65758;45.458;11.062;2023-02-04T04:22:44;101296.88;;;3.25;71.22
76808;BME280;65758;45.458;11.062;2023-02-04T04:25:11;101290.65;;;3.23;71.18
76808;BME280;65758;45.458;11.062;2023-02-04T04:27:38;101295.30;;;3.20;71.07
76808;BME280;65758;45.458;11.062;2023-02-04T04:30:04;101300.31;;;3.20;71.30
76808;BME280;65758;45.458;11.062;2023-02-04T04:32:31;101299.70;;;3.18;71.05
76808;BME280;65758;45.458;11.062;2023-02-04T04:34:58;101297.39;;;3.16;70.96
76808;BME280;65758;45.458;11.062;2023-02-04T04:37:24;101298.80;;;3.14;70.97
76808;BME280;65758;45.458;11.062;2023-02-04T04:39:51;101294.10;;;3.11;70.61
76808;BME280;65758;45.458;11.062;2023-02-04T04:42:18;101288.10;;;3.08;70.44
76808;BME280;65758;45.458;11.062;2023-02-04T04:44:44;101288.27;;;3.07;70.50
76808;BME280;65758;45.458;11.062;2023-02-04T04:47:11;101273.65;;;3.05;70.64
76808;BME280;65758;45.458;11.062;2023-02-04T04:49:38;101256.07;;;3.06;70.93
76808;BME280;65758;45.458;11.062;2023-02-04T04:52:05;101248.14;;;3.11;70.94
76808;BME280;65758;45.458;11.062;2023-02-04T04:54:31;101258.46;;;3.19;70.93
76808;BME280;65758;45.458;11.062;2023-02-04T04:56:58;101257.05;;;3.25;70.94
76808;BME280;65758;45.458;11.062;2023-02-04T04:59:25;101257.83;;;3.29;70.65
76808;BME280;65758;45.458;11.062;2023-02-04T05:01:52;101262.91;;;3.32;70.47
76808;BME280;65758;45.458;11.062;2023-02-04T05:04:18;101269.67;;;3.35;70.52
76808;BME280;65758;45.458;11.062;2023-02-04T05:06:45;101267.70;;;3.33;70.23
76808;BME280;65758;45.458;11.062;2023-02-04T05:09:11;101263.55;;;3.31;70.07
76808;BME280;65758;45.458;11.062;2023-02-04T05:11:40;101267.57;;;3.29;70.21
76808;BME280;65758;45.458;11.062;2023-02-04T05:14:07;101275.74;;;3.25;70.21
76808;BME280;65758;45.458;11.062;2023-02-04T05:16:33;101284.66;;;3.22;70.02
76808;BME280;65758;45.458;11.062;2023-02-04T05:19:00;101279.92;;;3.19;70.06
76808;BME280;65758;45.458;11.062;2023-02-04T05:21:27;101291.98;;;3.15;70.05
76808;BME280;65758;45.458;11.062;2023-02-04T05:23:53;101299.48;;;3.11;69.77
76808;BME280;65758;45.458;11.062;2023-02-04T05:26:20;101311.21;;;3.08;69.78
76808;BME280;65758;45.458;11.062;2023-02-04T05:28:56;101314.29;;;3.03;70.19
76808;BME280;65758;45.458;11.062;2023-02-04T05:31:23;101304.69;;;3.03;70.45
76808;BME280;65758;45.458;11.062;2023-02-04T05:33:49;101308.17;;;3.06;70.52
76808;BME280;65758;45.458;11.062;2023-02-04T05:36:16;101298.80;;;3.11;70.44
76808;BME280;65758;45.458;11.062;2023-02-04T05:38:43;101305.13;;;3.14;70.67
76808;BME280;65758;45.458;11.062;2023-02-04T05:41:10;101308.54;;;3.16;71.03
76808;BME280;65758;45.458;11.062;2023-02-04T05:43:37;101306.99;;;3.17;70.57
76808;BME280;65758;45.458;11.062;2023-02-04T05:46:04;101311.48;;;3.18;70.31
76808;BME280;65758;45.458;11.062;2023-02-04T05:48:31;101328.59;;;3.19;70.42
76808;BME280;65758;45.458;11.062;2023-02-04T05:50:57;101328.73;;;3.22;71.05
76808;BME280;65758;45.458;11.062;2023-02-04T05:53:24;101326.17;;;3.24;70.29
76808;BME280;65758;45.458;11.062;2023-02-04T05:55:51;101338.81;;;3.22;70.31
76808;BME280;65758;45.458;11.062;2023-02-04T05:58:18;101336.14;;;3.20;70.24
76808;BME280;65758;45.458;11.062;2023-02-04T06:00:45;101332.64;;;3.15;70.08
76808;BME280;65758;45.458;11.062;2023-02-04T06:03:11;101327.81;;;3.08;69.67
76808;BME280;65758;45.458;11.062;2023-02-04T06:05:40;101321.67;;;3.01;70.05
76808;BME280;65758;45.458;11.062;2023-02-04T06:08:06;101323.17;;;2.94;70.51
76808;BME280;65758;45.458;11.062;2023-02-04T06:10:33;101325.08;;;2.93;70.92
76808;BME280;65758;45.458;11.062;2023-02-04T06:13:00;101319.43;;;2.97;70.93
76808;BME280;65758;45.458;11.062;2023-02-04T06:15:27;101329.69;;;3.04;70.85
76808;BME280;65758;45.458;11.062;2023-02-04T06:17:53;101333.94;;;3.09;71.24
76808;BME280;65758;45.458;11.062;2023-02-04T06:20:20;101332.70;;;3.12;70.94
76808;BME280;65758;45.458;11.062;2023-02-04T06:22:46;101347.98;;;3.18;71.05
76808;BME280;65758;45.458;11.062;2023-02-04T06:25:17;101344.67;;;3.22;71.00
76808;BME280;65758;45.458;11.062;2023-02-04T06:27:44;101360.38;;;3.23;70.93
76808;BME280;65758;45.458;11.062;2023-02-04T06:30:11;101363.18;;;3.22;71.06
76808;BME280;65758;45.458;11.062;2023-02-04T06:32:38;101358.42;;;3.21;70.72
76808;BME280;65758;45.458;11.062;2023-02-04T06:35:06;101371.35;;;3.18;70.87
76808;BME280;65758;45.458;11.062;2023-02-04T06:37:33;101375.45;;;3.15;70.87
76808;BME280;65758;45.458;11.062;2023-02-04T06:40:00;101376.77;;;3.13;70.61
76808;BME280;65758;45.458;11.062;2023-02-04T06:42:27;101378.01;;;3.12;70.39
76808;BME280;65758;45.458;11.062;2023-02-04T06:44:53;101391.43;;;3.13;71.60
76808;BME280;65758;45.458;11.062;2023-02-04T06:47:20;101400.05;;;3.26;71.93
76808;BME280;65758;45.458;11.062;2023-02-04T06:49:47;101400.89;;;3.37;71.13
76808;BME280;65758;45.458;11.062;2023-02-04T06:52:14;101401.75;;;3.42;70.59
76808;BME280;65758;45.458;11.062;2023-02-04T06:54:41;101403.01;;;3.42;70.32
76808;BME280;65758;45.458;11.062;2023-02-04T06:57:07;101390.79;;;3.42;70.40
76808;BME280;65758;45.458;11.062;2023-02-04T06:59:36;101389.72;;;3.40;70.14
76808;BME280;65758;45.458;11.062;2023-02-04T07:02:05;101401.54;;;3.38;70.33
76808;BME280;65758;45.458;11.062;2023-02-04T07:04:33;101412.79;;;3.35;70.17
76808;BME280;65758;45.458;11.062;2023-02-04T07:07:00;101416.17;;;3.36;70.81
76808;BME280;65758;45.458;11.062;2023-02-04T07:09:27;101403.11;;;3.38;70.58
76808;BME280;65758;45.458;11.062;2023-02-04T07:11:54;101423.23;;;3.34;70.41
76808;BME280;65758;45.458;11.062;2023-02-04T07:14:21;101425.62;;;3.31;71.17
76808;BME280;65758;45.458;11.062;2023-02-04T07:16:48;101435.11;;;3.29;70.76
76808;BME280;65758;45.458;11.062;2023-02-04T07:19:14;101423.98;;;3.20;70.96
76808;BME280;65758;45.458;11.062;2023-02-04T07:21:41;101422.98;;;3.14;71.69
76808;BME280;65758;45.458;11.062;2023-02-04T07:24:08;101426.11;;;3.20;72.17
76808;BME280;65758;45.458;11.062;2023-02-04T07:26:34;101422.95;;;3.33;72.93
76808;BME280;65758;45.458;11.062;2023-02-04T07:29:01;101423.20;;;3.48;72.61
76808;BME280;65758;45.458;11.062;2023-02-04T07:31:28;101424.87;;;3.59;72.47
76808;BME280;65758;45.458;11.062;2023-02-04T07:33:55;101423.60;;;3.70;72.42
76808;BME280;65758;45.458;11.062;2023-02-04T07:36:21;101425.46;;;3.81;72.45
76808;BME280;65758;45.458;11.062;2023-02-04T07:38:48;101422.41;;;3.91;72.66
76808;BME280;65758;45.458;11.062;2023-02-04T07:41:15;101419.30;;;4.00;72.16
76808;BME280;65758;45.458;11.062;2023-02-04T07:43:41;101415.84;;;4.03;72.20
76808;BME280;65758;45.458;11.062;2023-02-04T07:46:08;101418.95;;;4.08;72.09
76808;BME280;65758;45.458;11.062;2023-02-04T07:48:35;101428.29;;;4.15;72.02
76808;BME280;65758;45.458;11.062;2023-02-04T07:51:02;101437.64;;;4.22;71.85
76808;BME280;65758;45.458;11.062;2023-02-04T07:53:28;101436.32;;;4.28;72.16
76808;BME280;65758;45.458;11.062;2023-02-04T07:55:55;101435.67;;;4.34;71.92
76808;BME280;65758;45.458;11.062;2023-02-04T07:58:22;101431.46;;;4.43;71.70
76808;BME280;65758;45.458;11.062;2023-02-04T08:00:48;101424.48;;;4.49;71.50
76808;BME280;65758;45.458;11.062;2023-02-04T08:03:15;101431.30;;;4.51;71.60
76808;BME280;65758;45.458;11.062;2023-02-04T08:05:41;101438.63;;;4.51;71.51
76808;BME280;65758;45.458;11.062;2023-02-04T08:08:08;101448.95;;;4.53;71.52
76808;BME280;65758;45.458;11.062;2023-02-04T08:10:35;101454.23;;;4.57;71.51
76808;BME280;65758;45.458;11.062;2023-02-04T08:13:01;101455.82;;;4.61;71.36
76808;BME280;65758;45.458;11.062;2023-02-04T08:15:28;101448.39;;;4.64;71.40
76808;BME280;65758;45.458;11.062;2023-02-04T08:17:55;101455.06;;;4.69;71.19
76808;BME280;65758;45.458;11.062;2023-02-04T08:20:21;101461.48;;;4.71;71.26
76808;BME280;65758;45.458;11.062;2023-02-04T08:22:48;101458.65;;;4.72;71.57
76808;BME280;65758;45.458;11.062;2023-02-04T08:25:15;101464.20;;;4.79;71.92
76808;BME280;65758;45.458;11.062;2023-02-04T08:27:42;101459.55;;;4.87;71.65
76808;BME280;65758;45.458;11.062;2023-02-04T08:30:09;101453.27;;;4.95;71.68
76808;BME280;65758;45.458;11.062;2023-02-04T08:32:36;101449.91;;;5.03;71.52
76808;BME280;65758;45.458;11.062;2023-02-04T08:35:02;101450.66;;;5.16;72.18
76808;BME280;65758;45.458;11.062;2023-02-04T08:37:31;101457.95;;;5.31;71.83
76808;BME280;65758;45.458;11.062;2023-02-04T08:39:59;101463.04;;;5.45;71.31
76808;BME280;65758;45.458;11.062;2023-02-04T08:42:26;101464.79;;;5.56;71.27
76808;BME280;65758;45.458;11.062;2023-02-04T08:44:52;101459.55;;;5.67;70.93
76808;BME280;65758;45.458;11.062;2023-02-04T08:47:19;101457.32;;;5.77;71.63
76808;BME280;65758;45.458;11.062;2023-02-04T08:49:46;101460.98;;;5.86;71.43
76808;BME280;65758;45.458;11.062;2023-02-04T08:52:12;101464.20;;;5.91;71.19
76808;BME280;65758;45.458;11.062;2023-02-04T08:54:39;101466.15;;;5.94;71.36
76808;BME280;65758;45.458;11.062;2023-02-04T08:57:05;101469.45;;;5.99;70.88
76808;BME280;65758;45.458;11.062;2023-02-04T08:59:32;101466.67;;;6.04;71.45
76808;BME280;65758;45.458;11.062;2023-02-04T09:01:59;101466.66;;;6.10;70.99
76808;BME280;65758;45.458;11.062;2023-02-04T09:04:26;101467.44;;;6.20;71.31
76808;BME280;65758;45.458;11.062;2023-02-04T09:06:54;101468.92;;;6.27;70.94
76808;BME280;65758;45.458;11.062;2023-02-04T09:09:21;101452.53;;;6.39;70.83
76808;BME280;65758;45.458;11.062;2023-02-04T09:11:49;101450.23;;;6.50;70.69
76808;BME280;65758;45.458;11.062;2023-02-04T09:14:15;101451.52;;;6.60;71.10
76808;BME280;65758;45.458;11.062;2023-02-04T09:16:42;101453.56;;;6.72;71.12
76808;BME280;65758;45.458;11.062;2023-02-04T09:19:09;101454.78;;;6.83;70.59
76808;BME280;65758;45.458;11.062;2023-02-04T09:21:38;101463.28;;;6.91;70.43
76808;BME280;65758;45.458;11.062;2023-02-04T09:24:04;101473.45;;;6.96;70.43
76808;BME280;65758;45.458;11.062;2023-02-04T09:26:31;101473.36;;;7.02;69.93
76808;BME280;65758;45.458;11.062;2023-02-04T09:28:58;101478.10;;;7.07;69.85
76808;BME280;65758;45.458;11.062;2023-02-04T09:31:24;101485.39;;;7.13;69.84
76808;BME280;65758;45.458;11.062;2023-02-04T09:33:51;101496.48;;;7.20;70.81
76808;BME280;65758;45.458;11.062;2023-02-04T09:36:18;101494.27;;;7.30;69.96
76808;BME280;65758;45.458;11.062;2023-02-04T09:38:46;101495.88;;;7.34;69.38
76808;BME280;65758;45.458;11.062;2023-02-04T09:41:13;101506.86;;;7.38;70.00
76808;BME280;65758;45.458;11.062;2023-02-04T09:43:43;101505.39;;;7.45;70.28
76808;BME280;65758;45.458;11.062;2023-02-04T09:46:18;101505.61;;;7.55;69.97
76808;BME280;65758;45.458;11.062;2023-02-04T09:48:46;101514.73;;;7.65;69.74
76808;BME280;65758;45.458;11.062;2023-02-04T09:51:17;101503.70;;;7.78;69.97
76808;BME280;65758;45.458;11.062;2023-02-04T09:53:47;101499.20;;;7.90;70.12
76808;BME280;65758;45.458;11.062;2023-02-04T09:56:14;101520.07;;;7.99;69.02
76808;BME280;65758;45.458;11.062;2023-02-04T09:58:41;101517.79;;;8.06;69.12
76808;BME280;65758;45.458;11.062;2023-02-04T10:01:13;101510.85;;;8.16;69.42
76808;BME280;65758;45.458;11.062;2023-02-04T10:03:43;101512.60;;;8.27;69.01
76808;BME280;65758;45.458;11.062;2023-02-04T10:06:16;101521.00;;;8.37;68.92
76808;BME280;65758;45.458;11.062;2023-02-04T10:08:44;101513.08;;;8.42;67.64
76808;BME280;65758;45.458;11.062;2023-02-04T10:11:12;101511.69;;;8.45;68.43
76808;BME280;65758;45.458;11.062;2023-02-04T10:13:42;101518.39;;;8.51;68.07
76808;BME280;65758;45.458;11.062;2023-02-04T10:20:30;101530.42;;;8.72;69.62
76808;BME280;65758;45.458;11.062;2023-02-04T10:22:57;101517.96;;;8.81;69.14
76808;BME280;65758;45.458;11.062;2023-02-04T10:29:22;101519.31;;;8.96;68.49
76808;BME280;65758;45.458;11.062;2023-02-04T10:31:51;101522.76;;;9.02;69.96
76808;BME280;65758;45.458;11.062;2023-02-04T10:34:22;101506.02;;;9.09;68.96
76808;BME280;65758;45.458;11.062;2023-02-04T10:36:52;101519.19;;;9.11;67.75
76808;BME280;65758;45.458;11.062;2023-02-04T10:39:25;101535.52;;;9.13;67.38
76808;BME280;65758;45.458;11.062;2023-02-04T10:41:57;101510.59;;;9.14;67.77
76808;BME280;65758;45.458;11.062;2023-02-04T10:44:26;101503.24;;;9.16;67.52
76808;BME280;65758;45.458;11.062;2023-02-04T10:51:13;101503.46;;;9.22;68.18
76808;BME280;65758;45.458;11.062;2023-02-04T10:53:40;101509.29;;;9.26;68.39
76808;BME280;65758;45.458;11.062;2023-02-04T10:56:25;101507.67;;;9.34;68.95
76808;BME280;65758;45.458;11.062;2023-02-04T11:03:29;101491.31;;;9.54;68.90
76808;BME280;65758;45.458;11.062;2023-02-04T11:10:15;101470.16;;;9.68;69.07
76808;BME280;65758;45.458;11.062;2023-02-04T11:12:46;101469.53;;;9.78;70.35
76808;BME280;65758;45.458;11.062;2023-02-04T11:18:13;101478.12;;;10.02;68.75
76808;BME280;65758;45.458;11.062;2023-02-04T11:20:54;101467.45;;;10.13;68.67
76808;BME280;65758;45.458;11.062;2023-02-04T11:28:39;101469.36;;;10.33;68.53
76808;BME280;65758;45.458;11.062;2023-02-04T11:39:35;101473.43;;;10.42;68.55
76808;BME280;65758;45.458;11.062;2023-02-04T11:46:17;101473.33;;;10.45;68.93
76808;BME280;65758;45.458;11.062;2023-02-04T11:48:44;101476.16;;;10.46;69.34
76808;BME280;65758;45.458;11.062;2023-02-04T11:55:35;101462.88;;;10.55;69.59
76808;BME280;65758;45.458;11.062;2023-02-04T11:58:02;101462.27;;;10.58;68.43
76808;BME280;65758;45.458;11.062;2023-02-04T12:04:57;101467.02;;;10.65;68.20
76808;BME280;65758;45.458;11.062;2023-02-04T12:07:33;101460.95;;;10.67;68.33
76808;BME280;65758;45.458;11.062;2023-02-04T12:10:09;101461.45;;;10.71;68.52
76808;BME280;65758;45.458;11.062;2023-02-04T12:13:10;101453.91;;;10.77;68.56
76808;BME280;65758;45.458;11.062;2023-02-04T12:19:42;101459.30;;;10.83;66.18
76808;BME280;65758;45.458;11.062;2023-02-04T12:22:09;101444.81;;;10.87;67.44
76808;BME280;65758;45.458;11.062;2023-02-04T12:28:37;101442.91;;;10.94;66.87
76808;BME280;65758;45.458;11.062;2023-02-04T12:31:04;101448.77;;;10.95;66.91
76808;BME280;65758;45.458;11.062;2023-02-04T12:33:31;101452.52;;;10.98;66.42
76808;BME280;65758;45.458;11.062;2023-02-04T12:35:57;101438.28;;;11.00;66.29
76808;BME280;65758;45.458;11.062;2023-02-04T12:38:24;101435.45;;;11.02;66.27
76808;BME280;65758;45.458;11.062;2023-02-04T12:40:53;101448.25;;;11.04;66.21
76808;BME280;65758;45.458;11.062;2023-02-04T12:43:19;101443.11;;;11.07;67.55
76808;BME280;65758;45.458;11.062;2023-02-04T12:50:11;101456.20;;;11.20;66.39
76808;BME280;65758;45.458;11.062;2023-02-04T12:52:38;101446.28;;;11.25;66.20
76808;BME280;65758;45.458;11.062;2023-02-04T12:59:24;101443.81;;;11.35;66.22
76808;BME280;65758;45.458;11.062;2023-02-04T13:06:04;101428.27;;;11.47;64.96
76808;BME280;65758;45.458;11.062;2023-02-04T13:12:59;101430.27;;;11.55;65.55
76808;BME280;65758;45.458;11.062;2023-02-04T13:19:49;101430.02;;;11.65;66.72
76808;BME280;65758;45.458;11.062;2023-02-04T13:22:16;101422.28;;;11.67;66.38
76808;BME280;65758;45.458;11.062;2023-02-04T13:24:42;101422.41;;;11.71;66.10
76808;BME280;65758;45.458;11.062;2023-02-04T13:31:23;101416.64;;;11.75;65.82
76808;BME280;65758;45.458;11.062;2023-02-04T13:38:12;101432.59;;;11.81;62.52
76808;BME280;65758;45.458;11.062;2023-02-04T13:40:38;101428.33;;;11.82;62.97
76808;BME280;65758;45.458;11.062;2023-02-04T13:47:24;101425.81;;;11.89;64.87
76808;BME280;65758;45.458;11.062;2023-02-04T13:49:51;101429.71;;;11.92;65.32
76808;BME280;65758;45.458;11.062;2023-02-04T13:52:18;101431.48;;;11.94;65.51
76808;BME280;65758;45.458;11.062;2023-02-04T13:58:38;101434.88;;;12.06;67.31
76808;BME280;65758;45.458;11.062;2023-02-04T14:01:13;101441.26;;;12.11;65.17
76808;BME280;65758;45.458;11.062;2023-02-04T14:03:40;101448.68;;;12.14;64.02
76808;BME280;65758;45.458;11.062;2023-02-04T14:06:08;101447.55;;;12.15;63.08
76808;BME280;65758;45.458;11.062;2023-02-04T14:08:35;101448.28;;;12.17;64.03
76808;BME280;65758;45.458;11.062;2023-02-04T14:11:03;101443.41;;;12.19;65.20
76808;BME280;65758;45.458;11.062;2023-02-04T14:17:50;101447.63;;;12.27;65.28
76808;BME280;65758;45.458;11.062;2023-02-04T14:20:17;101452.23;;;12.32;65.39
76808;BME280;65758;45.458;11.062;2023-02-04T14:22:44;101456.73;;;12.37;66.23
76808;BME280;65758;45.458;11.062;2023-02-04T14:25:10;101460.49;;;12.40;66.49
76808;BME280;65758;45.458;11.062;2023-02-04T14:27:37;101465.79;;;12.41;66.05
76808;BME280;65758;45.458;11.062;2023-02-04T14:30:27;101474.56;;;12.40;65.23
76808;BME280;65758;45.458;11.062;2023-02-04T14:32:55;101488.35;;;12.37;62.30
76808;BME280;65758;45.458;11.062;2023-02-04T14:35:22;101500.79;;;12.46;61.44
76808;BME280;65758;45.458;11.062;2023-02-04T14:37:50;101511.61;;;12.51;62.19
76808;BME280;65758;45.458;11.062;2023-02-04T14:40:18;101514.10;;;12.44;61.58
76808;BME280;65758;45.458;11.062;2023-02-04T14:42:45;101514.14;;;12.37;61.12